sensor_id;sensor_type;location;lat;lon;timestamp;P1;durP1;ratioP1;P2;durP2;ratioP2
79178;SDS011;68608;49.904;16.436;2023-07-22T00:00:58;12.52;;;5.32;;
79178;SDS011;68608;49.904;16.436;2023-07-22T00:03:25;6.32;;;5.22;;
79178;SDS011;68608;49.904;16.436;2023-07-22T00:06:04;8.35;;;6.75;;
79178;SDS011;68608;49.904;16.436;2023-07-22T00:08:31;11.15;;;7.72;;
79178;SDS011;68608;49.904;16.436;2023-07-22T00:10:57;9.70;;;8.40;;
79178;SDS011;68608;49.904;16.436;2023-07-22T00:13:23;10.73;;;9.82;;
79178;SDS011;68608;49.904;16.436;2023-07-22T00:15:52;12.45;;;9.43;;
79178;SDS011;68608;49.904;16.436;2023-07-22T00:18:18;9.38;;;8.48;;
79178;SDS011;68608;49.904;16.436;2023-07-22T00:20:44;10.45;;;9.02;;
79178;SDS011;68608;49.904;16.436;2023-07-22T00:23:10;8.57;;;7.78;;
79178;SDS011;68608;49.904;16.436;2023-07-22T00:25:36;9.40;;;8.48;;
79178;SDS011;68608;49.904;16.436;2023-07-22T00:28:02;8.32;;;7.53;;
79178;SDS011;68608;49.904;16.436;2023-07-22T00:30:31;8.40;;;7.53;;
79178;SDS011;68608;49.904;16.436;2023-07-22T00:32:57;8.05;;;7.25;;
79178;SDS011;68608;49.904;16.436;2023-07-22T00:35:23;9.52;;;8.52;;
79178;SDS011;68608;49.904;16.436;2023-07-22T00:37:49;7.45;;;6.88;;
79178;SDS011;68608;49.904;16.436;2023-07-22T00:40:15;7.82;;;7.22;;
79178;SDS011;68608;49.904;16.436;2023-07-22T00:42:42;7.78;;;7.10;;
79178;SDS011;68608;49.904;16.436;2023-07-22T00:45:09;7.22;;;6.50;;
79178;SDS011;68608;49.904;16.436;2023-07-22T00:47:35;8.57;;;7.75;;
79178;SDS011;68608;49.904;16.436;2023-07-22T00:50:06;7.50;;;6.80;;
79178;SDS011;68608;49.904;16.436;2023-07-22T00:52:35;8.70;;;7.63;;
79178;SDS011;68608;49.904;16.436;2023-07-22T00:55:02;7.25;;;6.55;;
79178;SDS011;68608;49.904;16.436;2023-07-22T00:57:28;8.00;;;7.30;;
79178;SDS011;68608;49.904;16.436;2023-07-22T00:59:54;9.43;;;8.10;;
79178;SDS011;68608;49.904;16.436;2023-07-22T01:02:21;8.50;;;7.80;;
79178;SDS011;68608;49.904;16.436;2023-07-22T01:04:47;11.60;;;10.50;;
79178;SDS011;68608;49.904;16.436;2023-07-22T01:07:14;14.05;;;12.75;;
79178;SDS011;68608;49.904;16.436;2023-07-22T01:09:41;16.50;;;15.05;;
79178;SDS011;68608;49.904;16.436;2023-07-22T01:12:08;15.00;;;13.65;;
79178;SDS011;68608;49.904;16.436;2023-07-22T01:14:37;16.75;;;15.10;;
79178;SDS011;68608;49.904;16.436;2023-07-22T01:17:04;16.85;;;15.25;;
79178;SDS011;68608;49.904;16.436;2023-07-22T01:19:31;17.23;;;15.63;;
79178;SDS011;68608;49.904;16.436;2023-07-22T01:21:58;16.70;;;15.02;;
79178;SDS011;68608;49.904;16.436;2023-07-22T01:24:25;22.67;;;20.65;;
79178;SDS011;68608;49.904;16.436;2023-07-22T01:26:51;23.85;;;21.65;;
79178;SDS011;68608;49.904;16.436;2023-07-22T01:29:17;24.10;;;21.63;;
79178;SDS011;68608;49.904;16.436;2023-07-22T01:31:46;25.08;;;22.65;;
79178;SDS011;68608;49.904;16.436;2023-07-22T01:34:12;24.08;;;21.77;;
79178;SDS011;68608;49.904;16.436;2023-07-22T01:36:38;24.92;;;22.45;;
79178;SDS011;68608;49.904;16.436;2023-07-22T01:39:05;24.02;;;21.63;;
79178;SDS011;68608;49.904;16.436;2023-07-22T01:41:31;24.15;;;21.73;;
79178;SDS011;68608;49.904;16.436;2023-07-22T01:43:57;20.20;;;18.35;;
79178;SDS011;68608;49.904;16.436;2023-07-22T01:46:23;20.23;;;18.35;;
79178;SDS011;68608;49.904;16.436;2023-07-22T01:48:49;18.55;;;16.65;;
79178;SDS011;68608;49.904;16.436;2023-07-22T01:51:15;16.17;;;14.68;;
79178;SDS011;68608;49.904;16.436;2023-07-22T01:53:41;14.50;;;13.18;;
79178;SDS011;68608;49.904;16.436;2023-07-22T01:56:07;14.95;;;13.65;;
79178;SDS011;68608;49.904;16.436;2023-07-22T01:58:33;13.57;;;12.48;;
79178;SDS011;68608;49.904;16.436;2023-07-22T02:00:59;14.50;;;13.10;;
79178;SDS011;68608;49.904;16.436;2023-07-22T02:03:26;15.10;;;13.60;;
79178;SDS011;68608;49.904;16.436;2023-07-22T02:05:52;14.73;;;13.15;;
79178;SDS011;68608;49.904;16.436;2023-07-22T02:08:19;15.15;;;13.85;;
79178;SDS011;68608;49.904;16.436;2023-07-22T02:10:45;13.93;;;12.60;;
79178;SDS011;68608;49.904;16.436;2023-07-22T02:13:11;13.73;;;12.63;;
79178;SDS011;68608;49.904;16.436;2023-07-22T02:15:37;14.57;;;13.27;;
79178;SDS011;68608;49.904;16.436;2023-07-22T02:18:03;12.70;;;11.63;;
79178;SDS011;68608;49.904;16.436;2023-07-22T02:20:29;12.27;;;11.13;;
79178;SDS011;68608;49.904;16.436;2023-07-22T02:22:55;11.13;;;10.20;;
79178;SDS011;68608;49.904;16.436;2023-07-22T02:25:22;9.98;;;9.18;;
79178;SDS011;68608;49.904;16.436;2023-07-22T02:27:48;9.50;;;8.70;;
79178;SDS011;68608;49.904;16.436;2023-07-22T02:30:14;8.35;;;7.75;;
79178;SDS011;68608;49.904;16.436;2023-07-22T02:32:40;7.60;;;6.93;;
79178;SDS011;68608;49.904;16.436;2023-07-22T02:35:09;6.93;;;6.32;;
79178;SDS011;68608;49.904;16.436;2023-07-22T02:37:37;7.40;;;6.63;;
79178;SDS011;68608;49.904;16.436;2023-07-22T02:40:03;8.23;;;7.50;;
79178;SDS011;68608;49.904;16.436;2023-07-22T02:42:39;7.38;;;6.78;;
79178;SDS011;68608;49.904;16.436;2023-07-22T02:45:05;7.07;;;6.57;;
79178;SDS011;68608;49.904;16.436;2023-07-22T02:47:34;7.90;;;7.20;;
79178;SDS011;68608;49.904;16.436;2023-07-22T02:50:01;7.75;;;7.05;;
79178;SDS011;68608;49.904;16.436;2023-07-22T02:52:28;7.75;;;6.93;;
79178;SDS011;68608;49.904;16.436;2023-07-22T02:55:10;7.68;;;7.00;;
79178;SDS011;68608;49.904;16.436;2023-07-22T02:57:37;12.82;;;7.53;;
79178;SDS011;68608;49.904;16.436;2023-07-22T03:00:03;7.60;;;7.00;;
79178;SDS011;68608;49.904;16.436;2023-07-22T03:02:36;10.40;;;7.72;;
79178;SDS011;68608;49.904;16.436;2023-07-22T03:05:06;8.70;;;7.95;;
79178;SDS011;68608;49.904;16.436;2023-07-22T03:07:33;9.02;;;8.23;;
79178;SDS011;68608;49.904;16.436;2023-07-22T03:09:59;11.05;;;10.07;;
79178;SDS011;68608;49.904;16.436;2023-07-22T03:12:25;12.23;;;11.23;;
79178;SDS011;68608;49.904;16.436;2023-07-22T03:14:52;11.48;;;10.45;;
79178;SDS011;68608;49.904;16.436;2023-07-22T03:17:18;10.82;;;9.93;;
79178;SDS011;68608;49.904;16.436;2023-07-22T03:19:44;10.93;;;10.02;;
79178;SDS011;68608;49.904;16.436;2023-07-22T03:22:13;12.00;;;10.90;;
79178;SDS011;68608;49.904;16.436;2023-07-22T03:24:39;13.25;;;12.07;;
79178;SDS011;68608;49.904;16.436;2023-07-22T03:27:05;11.73;;;10.73;;
79178;SDS011;68608;49.904;16.436;2023-07-22T03:29:32;11.43;;;10.30;;
79178;SDS011;68608;49.904;16.436;2023-07-22T03:31:58;12.82;;;11.73;;
79178;SDS011;68608;49.904;16.436;2023-07-22T03:34:25;11.30;;;10.18;;
79178;SDS011;68608;49.904;16.436;2023-07-22T03:36:51;14.23;;;12.82;;
79178;SDS011;68608;49.904;16.436;2023-07-22T03:39:17;13.07;;;11.98;;
79178;SDS011;68608;49.904;16.436;2023-07-22T03:41:43;14.13;;;12.82;;
79178;SDS011;68608;49.904;16.436;2023-07-22T03:44:09;12.40;;;11.35;;
79178;SDS011;68608;49.904;16.436;2023-07-22T03:46:35;13.00;;;11.90;;
79178;SDS011;68608;49.904;16.436;2023-07-22T03:49:01;12.27;;;11.18;;
79178;SDS011;68608;49.904;16.436;2023-07-22T03:51:27;12.60;;;11.50;;
79178;SDS011;68608;49.904;16.436;2023-07-22T03:53:53;13.00;;;11.93;;
79178;SDS011;68608;49.904;16.436;2023-07-22T03:56:20;12.13;;;11.13;;
79178;SDS011;68608;49.904;16.436;2023-07-22T03:58:46;13.45;;;12.15;;
79178;SDS011;68608;49.904;16.436;2023-07-22T04:01:12;14.27;;;12.98;;
79178;SDS011;68608;49.904;16.436;2023-07-22T04:03:41;13.63;;;12.40;;
79178;SDS011;68608;49.904;16.436;2023-07-22T04:06:07;12.60;;;11.57;;
79178;SDS011;68608;49.904;16.436;2023-07-22T04:08:33;12.93;;;11.82;;
79178;SDS011;68608;49.904;16.436;2023-07-22T04:10:59;14.48;;;13.18;;
79178;SDS011;68608;49.904;16.436;2023-07-22T04:13:26;13.65;;;11.70;;
79178;SDS011;68608;49.904;16.436;2023-07-22T04:15:52;12.43;;;11.43;;
79178;SDS011;68608;49.904;16.436;2023-07-22T04:18:19;11.90;;;10.85;;
79178;SDS011;68608;49.904;16.436;2023-07-22T04:20:45;11.88;;;10.90;;
79178;SDS011;68608;49.904;16.436;2023-07-22T04:23:13;12.50;;;11.40;;
79178;SDS011;68608;49.904;16.436;2023-07-22T04:25:42;12.57;;;11.48;;
79178;SDS011;68608;49.904;16.436;2023-07-22T04:28:09;11.52;;;10.52;;
79178;SDS011;68608;49.904;16.436;2023-07-22T04:30:35;10.60;;;9.70;;
79178;SDS011;68608;49.904;16.436;2023-07-22T04:33:02;11.00;;;10.10;;
79178;SDS011;68608;49.904;16.436;2023-07-22T04:35:37;10.93;;;10.02;;
79178;SDS011;68608;49.904;16.436;2023-07-22T04:38:03;11.95;;;10.80;;
79178;SDS011;68608;49.904;16.436;2023-07-22T04:40:29;10.57;;;9.68;;
79178;SDS011;68608;49.904;16.436;2023-07-22T04:42:56;11.20;;;10.23;;
79178;SDS011;68608;49.904;16.436;2023-07-22T04:45:22;10.23;;;9.32;;
79178;SDS011;68608;49.904;16.436;2023-07-22T04:47:49;11.40;;;10.30;;
79178;SDS011;68608;49.904;16.436;2023-07-22T04:50:15;10.95;;;9.90;;
79178;SDS011;68608;49.904;16.436;2023-07-22T04:52:46;11.55;;;10.50;;
79178;SDS011;68608;49.904;16.436;2023-07-22T04:55:13;9.63;;;8.82;;
79178;SDS011;68608;49.904;16.436;2023-07-22T04:57:39;9.55;;;8.77;;
79178;SDS011;68608;49.904;16.436;2023-07-22T05:00:10;9.32;;;8.52;;
79178;SDS011;68608;49.904;16.436;2023-07-22T05:02:39;9.15;;;8.35;;
79178;SDS011;68608;49.904;16.436;2023-07-22T05:05:06;9.93;;;9.10;;
79178;SDS011;68608;49.904;16.436;2023-07-22T05:07:32;8.13;;;7.50;;
79178;SDS011;68608;49.904;16.436;2023-07-22T05:09:58;9.85;;;8.93;;
79178;SDS011;68608;49.904;16.436;2023-07-22T05:12:24;8.70;;;7.90;;
79178;SDS011;68608;49.904;16.436;2023-07-22T05:14:50;7.35;;;6.72;;
79178;SDS011;68608;49.904;16.436;2023-07-22T05:17:16;8.38;;;7.65;;
79178;SDS011;68608;49.904;16.436;2023-07-22T05:19:43;8.38;;;7.60;;
79178;SDS011;68608;49.904;16.436;2023-07-22T05:22:09;7.85;;;7.22;;
79178;SDS011;68608;49.904;16.436;2023-07-22T05:24:35;7.72;;;6.88;;
79178;SDS011;68608;49.904;16.436;2023-07-22T05:27:01;7.95;;;7.25;;
79178;SDS011;68608;49.904;16.436;2023-07-22T05:29:27;6.95;;;6.30;;
79178;SDS011;68608;49.904;16.436;2023-07-22T05:31:53;8.70;;;7.95;;
79178;SDS011;68608;49.904;16.436;2023-07-22T05:34:20;9.00;;;8.23;;
79178;SDS011;68608;49.904;16.436;2023-07-22T05:36:49;8.60;;;7.03;;
79178;SDS011;68608;49.904;16.436;2023-07-22T05:39:15;9.05;;;8.25;;
79178;SDS011;68608;49.904;16.436;2023-07-22T05:41:43;7.32;;;6.65;;
79178;SDS011;68608;49.904;16.436;2023-07-22T05:44:09;7.25;;;6.65;;
79178;SDS011;68608;49.904;16.436;2023-07-22T05:46:35;8.02;;;7.20;;
79178;SDS011;68608;49.904;16.436;2023-07-22T05:49:03;7.32;;;6.70;;
79178;SDS011;68608;49.904;16.436;2023-07-22T05:51:30;6.45;;;5.95;;
79178;SDS011;68608;49.904;16.436;2023-07-22T05:53:56;7.47;;;6.75;;
79178;SDS011;68608;49.904;16.436;2023-07-22T05:56:22;5.85;;;5.35;;
79178;SDS011;68608;49.904;16.436;2023-07-22T05:58:48;6.32;;;5.72;;
79178;SDS011;68608;49.904;16.436;2023-07-22T06:01:14;8.10;;;7.30;;
79178;SDS011;68608;49.904;16.436;2023-07-22T06:03:40;7.93;;;7.13;;
79178;SDS011;68608;49.904;16.436;2023-07-22T06:06:08;7.03;;;5.90;;
79178;SDS011;68608;49.904;16.436;2023-07-22T06:08:34;6.47;;;5.82;;
79178;SDS011;68608;49.904;16.436;2023-07-22T06:11:00;6.95;;;6.25;;
79178;SDS011;68608;49.904;16.436;2023-07-22T06:13:27;5.38;;;4.95;;
79178;SDS011;68608;49.904;16.436;2023-07-22T06:15:53;7.03;;;6.07;;
79178;SDS011;68608;49.904;16.436;2023-07-22T06:18:22;6.00;;;5.40;;
79178;SDS011;68608;49.904;16.436;2023-07-22T06:20:48;6.38;;;5.32;;
79178;SDS011;68608;49.904;16.436;2023-07-22T06:23:15;8.88;;;6.68;;
79178;SDS011;68608;49.904;16.436;2023-07-22T06:25:43;5.85;;;5.32;;
79178;SDS011;68608;49.904;16.436;2023-07-22T06:28:09;6.60;;;4.95;;
79178;SDS011;68608;49.904;16.436;2023-07-22T06:30:38;4.30;;;3.95;;
79178;SDS011;68608;49.904;16.436;2023-07-22T06:33:04;6.63;;;4.07;;
79178;SDS011;68608;49.904;16.436;2023-07-22T06:35:30;4.47;;;4.07;;
79178;SDS011;68608;49.904;16.436;2023-07-22T06:37:56;3.90;;;3.60;;
79178;SDS011;68608;49.904;16.436;2023-07-22T06:40:24;3.83;;;3.40;;
79178;SDS011;68608;49.904;16.436;2023-07-22T06:42:50;4.40;;;3.78;;
79178;SDS011;68608;49.904;16.436;2023-07-22T06:45:19;4.05;;;3.53;;
79178;SDS011;68608;49.904;16.436;2023-07-22T06:47:45;4.82;;;3.65;;
79178;SDS011;68608;49.904;16.436;2023-07-22T06:50:15;4.55;;;3.70;;
79178;SDS011;68608;49.904;16.436;2023-07-22T06:52:41;4.63;;;4.15;;
79178;SDS011;68608;49.904;16.436;2023-07-22T06:55:10;3.40;;;3.10;;
79178;SDS011;68608;49.904;16.436;2023-07-22T06:57:36;4.07;;;3.67;;
79178;SDS011;68608;49.904;16.436;2023-07-22T07:00:03;3.42;;;3.20;;
79178;SDS011;68608;49.904;16.436;2023-07-22T07:02:30;3.13;;;2.83;;
79178;SDS011;68608;49.904;16.436;2023-07-22T07:04:56;3.28;;;2.97;;
79178;SDS011;68608;49.904;16.436;2023-07-22T07:07:22;4.22;;;3.13;;
79178;SDS011;68608;49.904;16.436;2023-07-22T07:09:48;3.17;;;2.88;;
79178;SDS011;68608;49.904;16.436;2023-07-22T07:12:15;3.53;;;3.22;;
79178;SDS011;68608;49.904;16.436;2023-07-22T07:14:49;5.22;;;3.20;;
79178;SDS011;68608;49.904;16.436;2023-07-22T07:17:26;3.33;;;2.90;;
79178;SDS011;68608;49.904;16.436;2023-07-22T07:19:52;3.95;;;3.03;;
79178;SDS011;68608;49.904;16.436;2023-07-22T07:22:19;5.90;;;3.55;;
79178;SDS011;68608;49.904;16.436;2023-07-22T07:24:45;3.90;;;3.47;;
79178;SDS011;68608;49.904;16.436;2023-07-22T07:27:11;2.92;;;2.67;;
79178;SDS011;68608;49.904;16.436;2023-07-22T07:29:37;3.30;;;3.00;;
79178;SDS011;68608;49.904;16.436;2023-07-22T07:32:03;2.95;;;2.75;;
79178;SDS011;68608;49.904;16.436;2023-07-22T07:34:30;3.60;;;2.90;;
79178;SDS011;68608;49.904;16.436;2023-07-22T07:36:56;5.47;;;3.35;;
79178;SDS011;68608;49.904;16.436;2023-07-22T07:39:22;3.35;;;3.15;;
79178;SDS011;68608;49.904;16.436;2023-07-22T07:41:48;3.58;;;3.28;;
79178;SDS011;68608;49.904;16.436;2023-07-22T07:44:14;3.45;;;3.15;;
79178;SDS011;68608;49.904;16.436;2023-07-22T07:46:40;4.18;;;3.13;;
79178;SDS011;68608;49.904;16.436;2023-07-22T07:49:06;3.15;;;2.95;;
79178;SDS011;68608;49.904;16.436;2023-07-22T07:51:33;2.97;;;2.70;;
79178;SDS011;68608;49.904;16.436;2023-07-22T07:54:00;2.70;;;2.50;;
79178;SDS011;68608;49.904;16.436;2023-07-22T07:56:26;3.42;;;2.92;;
79178;SDS011;68608;49.904;16.436;2023-07-22T07:58:53;3.38;;;2.97;;
79178;SDS011;68608;49.904;16.436;2023-07-22T08:01:19;3.05;;;2.72;;
79178;SDS011;68608;49.904;16.436;2023-07-22T08:03:46;4.38;;;2.90;;
79178;SDS011;68608;49.904;16.436;2023-07-22T08:06:12;2.72;;;2.53;;
79178;SDS011;68608;49.904;16.436;2023-07-22T08:08:39;3.05;;;2.75;;
79178;SDS011;68608;49.904;16.436;2023-07-22T08:13:31;3.05;;;2.60;;
79178;SDS011;68608;49.904;16.436;2023-07-22T08:15:59;4.07;;;2.40;;
79178;SDS011;68608;49.904;16.436;2023-07-22T08:18:25;2.95;;;2.67;;
79178;SDS011;68608;49.904;16.436;2023-07-22T08:20:52;3.15;;;2.85;;
79178;SDS011;68608;49.904;16.436;2023-07-22T08:23:19;2.60;;;2.08;;
79178;SDS011;68608;49.904;16.436;2023-07-22T08:25:45;2.50;;;2.30;;
79178;SDS011;68608;49.904;16.436;2023-07-22T08:28:11;5.70;;;2.80;;
79178;SDS011;68608;49.904;16.436;2023-07-22T08:30:37;2.78;;;2.17;;
79178;SDS011;68608;49.904;16.436;2023-07-22T08:33:05;3.10;;;2.83;;
79178;SDS011;68608;49.904;16.436;2023-07-22T08:35:33;7.40;;;2.70;;
79178;SDS011;68608;49.904;16.436;2023-07-22T08:38:00;2.50;;;2.15;;
79178;SDS011;68608;49.904;16.436;2023-07-22T08:40:27;2.63;;;2.42;;
79178;SDS011;68608;49.904;16.436;2023-07-22T08:42:53;2.85;;;2.65;;
79178;SDS011;68608;49.904;16.436;2023-07-22T08:45:19;4.60;;;2.88;;
79178;SDS011;68608;49.904;16.436;2023-07-22T08:47:46;3.53;;;3.22;;
79178;SDS011;68608;49.904;16.436;2023-07-22T08:50:16;3.45;;;2.35;;
79178;SDS011;68608;49.904;16.436;2023-07-22T08:52:45;3.33;;;2.42;;
79178;SDS011;68608;49.904;16.436;2023-07-22T08:55:12;2.75;;;2.55;;
79178;SDS011;68608;49.904;16.436;2023-07-22T08:57:38;2.42;;;2.10;;
79178;SDS011;68608;49.904;16.436;2023-07-22T09:00:05;4.07;;;3.00;;
79178;SDS011;68608;49.904;16.436;2023-07-22T09:02:33;3.08;;;2.88;;
79178;SDS011;68608;49.904;16.436;2023-07-22T09:04:59;4.25;;;2.65;;
79178;SDS011;68608;49.904;16.436;2023-07-22T09:07:25;3.47;;;3.10;;
79178;SDS011;68608;49.904;16.436;2023-07-22T09:09:56;3.45;;;2.92;;
79178;SDS011;68608;49.904;16.436;2023-07-22T09:12:22;3.55;;;2.58;;
79178;SDS011;68608;49.904;16.436;2023-07-22T09:14:49;3.10;;;2.83;;
79178;SDS011;68608;49.904;16.436;2023-07-22T09:17:15;2.75;;;2.55;;
79178;SDS011;68608;49.904;16.436;2023-07-22T09:19:41;4.85;;;2.60;;
79178;SDS011;68608;49.904;16.436;2023-07-22T09:22:07;4.15;;;2.58;;
79178;SDS011;68608;49.904;16.436;2023-07-22T09:24:34;3.17;;;2.58;;
79178;SDS011;68608;49.904;16.436;2023-07-22T09:27:00;2.45;;;2.35;;
79178;SDS011;68608;49.904;16.436;2023-07-22T09:29:38;3.55;;;3.25;;
79178;SDS011;68608;49.904;16.436;2023-07-22T09:32:07;3.03;;;2.80;;
79178;SDS011;68608;49.904;16.436;2023-07-22T09:34:33;4.47;;;2.60;;
79178;SDS011;68608;49.904;16.436;2023-07-22T09:36:59;3.00;;;2.65;;
79178;SDS011;68608;49.904;16.436;2023-07-22T09:39:25;2.88;;;2.58;;
79178;SDS011;68608;49.904;16.436;2023-07-22T09:41:52;3.38;;;2.42;;
79178;SDS011;68608;49.904;16.436;2023-07-22T09:44:18;2.38;;;2.17;;
79178;SDS011;68608;49.904;16.436;2023-07-22T09:46:48;3.08;;;2.85;;
79178;SDS011;68608;49.904;16.436;2023-07-22T09:49:15;2.60;;;2.40;;
79178;SDS011;68608;49.904;16.436;2023-07-22T09:51:42;3.58;;;2.90;;
79178;SDS011;68608;49.904;16.436;2023-07-22T09:54:08;3.00;;;2.67;;
79178;SDS011;68608;49.904;16.436;2023-07-22T09:56:45;3.83;;;2.58;;
79178;SDS011;68608;49.904;16.436;2023-07-22T09:59:12;2.97;;;2.30;;
79178;SDS011;68608;49.904;16.436;2023-07-22T10:01:41;3.28;;;2.40;;
79178;SDS011;68608;49.904;16.436;2023-07-22T10:04:08;3.22;;;3.03;;
79178;SDS011;68608;49.904;16.436;2023-07-22T10:06:34;2.38;;;2.20;;
79178;SDS011;68608;49.904;16.436;2023-07-22T10:09:04;2.72;;;2.20;;
79178;SDS011;68608;49.904;16.436;2023-07-22T10:11:34;2.35;;;2.17;;
79178;SDS011;68608;49.904;16.436;2023-07-22T10:14:03;2.30;;;2.20;;
79178;SDS011;68608;49.904;16.436;2023-07-22T10:16:29;1.67;;;1.58;;
79178;SDS011;68608;49.904;16.436;2023-07-22T10:18:56;2.22;;;1.80;;
79178;SDS011;68608;49.904;16.436;2023-07-22T10:21:23;1.92;;;1.80;;
79178;SDS011;68608;49.904;16.436;2023-07-22T10:23:50;6.07;;;2.40;;
79178;SDS011;68608;49.904;16.436;2023-07-22T10:26:17;2.50;;;2.30;;
79178;SDS011;68608;49.904;16.436;2023-07-22T10:28:44;2.15;;;1.95;;
79178;SDS011;68608;49.904;16.436;2023-07-22T10:31:10;2.40;;;2.17;;
79178;SDS011;68608;49.904;16.436;2023-07-22T10:33:38;2.88;;;2.05;;
79178;SDS011;68608;49.904;16.436;2023-07-22T10:36:05;2.70;;;2.50;;
79178;SDS011;68608;49.904;16.436;2023-07-22T10:38:31;2.67;;;2.03;;
79178;SDS011;68608;49.904;16.436;2023-07-22T10:40:57;3.08;;;2.40;;
79178;SDS011;68608;49.904;16.436;2023-07-22T10:43:30;2.38;;;2.17;;
79178;SDS011;68608;49.904;16.436;2023-07-22T10:46:05;2.20;;;2.00;;
79178;SDS011;68608;49.904;16.436;2023-07-22T10:48:36;4.00;;;2.33;;
79178;SDS011;68608;49.904;16.436;2023-07-22T10:51:20;2.17;;;2.08;;
79178;SDS011;68608;49.904;16.436;2023-07-22T10:53:47;3.20;;;2.15;;
79178;SDS011;68608;49.904;16.436;2023-07-22T10:56:15;2.28;;;1.67;;
79178;SDS011;68608;49.904;16.436;2023-07-22T11:11:56;2.80;;;2.10;;
79178;SDS011;68608;49.904;16.436;2023-07-22T11:14:27;1.88;;;1.77;;
79178;SDS011;68608;49.904;16.436;2023-07-22T11:16:53;3.55;;;2.10;;
79178;SDS011;68608;49.904;16.436;2023-07-22T11:19:21;2.65;;;2.17;;
79178;SDS011;68608;49.904;16.436;2023-07-22T11:21:49;2.47;;;1.70;;
79178;SDS011;68608;49.904;16.436;2023-07-22T11:24:15;1.75;;;1.65;;
79178;SDS011;68608;49.904;16.436;2023-07-22T11:26:42;2.92;;;2.00;;
79178;SDS011;68608;49.904;16.436;2023-07-22T11:29:08;2.13;;;1.70;;
79178;SDS011;68608;49.904;16.436;2023-07-22T11:31:35;2.17;;;1.98;;
79178;SDS011;68608;49.904;16.436;2023-07-22T11:34:04;2.25;;;2.15;;
79178;SDS011;68608;49.904;16.436;2023-07-22T11:36:31;2.22;;;2.00;;
79178;SDS011;68608;49.904;16.436;2023-07-22T11:39:04;2.78;;;1.95;;
79178;SDS011;68608;49.904;16.436;2023-07-22T11:41:31;3.13;;;2.22;;
79178;SDS011;68608;49.904;16.436;2023-07-22T11:43:58;2.38;;;2.05;;
79178;SDS011;68608;49.904;16.436;2023-07-22T11:46:24;2.13;;;1.92;;
79178;SDS011;68608;49.904;16.436;2023-07-22T11:48:51;2.67;;;2.47;;
79178;SDS011;68608;49.904;16.436;2023-07-22T11:51:19;2.63;;;2.42;;
79178;SDS011;68608;49.904;16.436;2023-07-22T11:53:52;2.50;;;2.30;;
79178;SDS011;68608;49.904;16.436;2023-07-22T11:56:28;2.40;;;2.20;;
79178;SDS011;68608;49.904;16.436;2023-07-22T11:58:55;3.45;;;2.38;;
79178;SDS011;68608;49.904;16.436;2023-07-22T12:01:22;2.42;;;1.95;;
79178;SDS011;68608;49.904;16.436;2023-07-22T12:03:48;3.00;;;2.70;;
79178;SDS011;68608;49.904;16.436;2023-07-22T12:06:15;2.80;;;2.55;;
79178;SDS011;68608;49.904;16.436;2023-07-22T12:08:48;2.58;;;2.30;;
79178;SDS011;68608;49.904;16.436;2023-07-22T12:13:43;2.67;;;2.47;;
79178;SDS011;68608;49.904;16.436;2023-07-22T12:16:20;2.28;;;2.08;;
79178;SDS011;68608;49.904;16.436;2023-07-22T12:18:47;2.58;;;2.17;;
79178;SDS011;68608;49.904;16.436;2023-07-22T12:21:13;2.85;;;2.65;;
79178;SDS011;68608;49.904;16.436;2023-07-22T12:23:40;2.45;;;2.15;;
79178;SDS011;68608;49.904;16.436;2023-07-22T12:26:07;2.25;;;2.05;;
79178;SDS011;68608;49.904;16.436;2023-07-22T12:28:33;2.67;;;2.33;;
79178;SDS011;68608;49.904;16.436;2023-07-22T12:31:00;2.88;;;2.40;;
79178;SDS011;68608;49.904;16.436;2023-07-22T12:33:26;2.95;;;2.75;;
79178;SDS011;68608;49.904;16.436;2023-07-22T12:35:56;2.60;;;2.35;;
79178;SDS011;68608;49.904;16.436;2023-07-22T12:38:22;2.83;;;2.55;;
79178;SDS011;68608;49.904;16.436;2023-07-22T12:40:48;2.45;;;2.25;;
79178;SDS011;68608;49.904;16.436;2023-07-22T12:43:14;3.13;;;2.75;;
79178;SDS011;68608;49.904;16.436;2023-07-22T12:45:40;2.58;;;2.38;;
79178;SDS011;68608;49.904;16.436;2023-07-22T12:48:06;3.17;;;2.17;;
79178;SDS011;68608;49.904;16.436;2023-07-22T12:50:32;2.80;;;2.53;;
79178;SDS011;68608;49.904;16.436;2023-07-22T12:52:59;2.50;;;2.30;;
79178;SDS011;68608;49.904;16.436;2023-07-22T12:55:25;2.72;;;2.30;;
79178;SDS011;68608;49.904;16.436;2023-07-22T12:57:51;2.90;;;2.38;;
79178;SDS011;68608;49.904;16.436;2023-07-22T13:00:18;3.50;;;2.20;;
79178;SDS011;68608;49.904;16.436;2023-07-22T13:02:44;2.22;;;2.10;;
79178;SDS011;68608;49.904;16.436;2023-07-22T13:05:10;4.50;;;2.58;;
79178;SDS011;68608;49.904;16.436;2023-07-22T13:07:39;3.13;;;2.67;;
79178;SDS011;68608;49.904;16.436;2023-07-22T13:10:05;2.90;;;2.55;;
79178;SDS011;68608;49.904;16.436;2023-07-22T13:12:35;4.60;;;2.63;;
79178;SDS011;68608;49.904;16.436;2023-07-22T13:15:01;2.58;;;2.38;;
79178;SDS011;68608;49.904;16.436;2023-07-22T13:17:28;2.30;;;2.13;;
79178;SDS011;68608;49.904;16.436;2023-07-22T13:19:54;3.10;;;2.15;;
79178;SDS011;68608;49.904;16.436;2023-07-22T13:22:20;2.45;;;2.25;;
79178;SDS011;68608;49.904;16.436;2023-07-22T13:24:46;2.70;;;2.47;;
79178;SDS011;68608;49.904;16.436;2023-07-22T13:27:12;3.38;;;2.35;;
79178;SDS011;68608;49.904;16.436;2023-07-22T13:29:38;2.88;;;2.53;;
79178;SDS011;68608;49.904;16.436;2023-07-22T13:32:04;2.35;;;2.17;;
79178;SDS011;68608;49.904;16.436;2023-07-22T13:34:31;3.92;;;3.05;;
79178;SDS011;68608;49.904;16.436;2023-07-22T13:36:57;3.17;;;2.88;;
79178;SDS011;68608;49.904;16.436;2023-07-22T13:39:23;3.17;;;2.88;;
79178;SDS011;68608;49.904;16.436;2023-07-22T13:41:49;2.78;;;2.58;;
79178;SDS011;68608;49.904;16.436;2023-07-22T13:44:15;2.95;;;2.75;;
79178;SDS011;68608;49.904;16.436;2023-07-22T13:46:41;3.45;;;2.80;;
79178;SDS011;68608;49.904;16.436;2023-07-22T13:49:07;3.05;;;2.85;;
79178;SDS011;68608;49.904;16.436;2023-07-22T13:51:34;3.17;;;2.88;;
79178;SDS011;68608;49.904;16.436;2023-07-22T13:54:00;2.60;;;2.40;;
79178;SDS011;68608;49.904;16.436;2023-07-22T13:56:26;3.13;;;2.83;;
79178;SDS011;68608;49.904;16.436;2023-07-22T13:58:53;3.30;;;2.50;;
79178;SDS011;68608;49.904;16.436;2023-07-22T14:01:20;3.50;;;2.65;;
79178;SDS011;68608;49.904;16.436;2023-07-22T14:03:46;3.08;;;2.88;;
79178;SDS011;68608;49.904;16.436;2023-07-22T14:06:14;2.53;;;2.28;;
79178;SDS011;68608;49.904;16.436;2023-07-22T14:08:40;3.03;;;2.75;;
79178;SDS011;68608;49.904;16.436;2023-07-22T14:11:07;3.08;;;2.78;;
79178;SDS011;68608;49.904;16.436;2023-07-22T14:13:33;3.47;;;2.83;;
79178;SDS011;68608;49.904;16.436;2023-07-22T14:16:01;3.50;;;2.03;;
79178;SDS011;68608;49.904;16.436;2023-07-22T14:18:27;4.38;;;3.10;;
79178;SDS011;68608;49.904;16.436;2023-07-22T14:20:53;3.30;;;2.30;;
79178;SDS011;68608;49.904;16.436;2023-07-22T14:23:19;2.70;;;2.45;;
79178;SDS011;68608;49.904;16.436;2023-07-22T14:25:45;3.05;;;2.75;;
79178;SDS011;68608;49.904;16.436;2023-07-22T14:28:11;3.78;;;3.15;;
79178;SDS011;68608;49.904;16.436;2023-07-22T14:30:37;5.30;;;2.88;;
79178;SDS011;68608;49.904;16.436;2023-07-22T14:33:03;2.80;;;2.60;;
79178;SDS011;68608;49.904;16.436;2023-07-22T14:35:29;3.13;;;2.53;;
79178;SDS011;68608;49.904;16.436;2023-07-22T14:38:03;3.80;;;3.28;;
79178;SDS011;68608;49.904;16.436;2023-07-22T14:40:29;2.65;;;2.45;;
79178;SDS011;68608;49.904;16.436;2023-07-22T14:42:55;2.30;;;2.10;;
79178;SDS011;68608;49.904;16.436;2023-07-22T14:45:21;2.63;;;2.42;;